sensor_id;sensor_type;location;lat;lon;timestamp;pressure;altitude;pressure_sealevel;temperature;humidity
32251;BME280;41295;48.518;9.206;2023-04-06T00:02:00;97408.41;;;5.59;47.16
32251;BME280;41295;48.518;9.206;2023-04-06T00:04:03;97402.44;;;5.57;47.18
32251;BME280;41295;48.518;9.206;2023-04-06T00:06:06;97401.59;;;5.55;47.64
32251;BME280;41295;48.518;9.206;2023-04-06T00:08:09;97403.34;;;5.53;47.92
32251;BME280;41295;48.518;9.206;2023-04-06T00:10:13;97400.81;;;5.50;48.08
32251;BME280;41295;48.518;9.206;2023-04-06T00:12:16;97395.72;;;5.44;48.22
32251;BME280;41295;48.518;9.206;2023-04-06T00:14:18;97394.03;;;5.43;48.39
32251;BME280;41295;48.518;9.206;2023-04-06T00:16:21;97389.78;;;5.38;48.34
32251;BME280;41295;48.518;9.206;2023-04-06T00:18:25;97388.06;;;5.37;48.12
32251;BME280;41295;48.518;9.206;2023-04-06T00:20:28;97388.91;;;5.38;48.12
32251;BME280;41295;48.518;9.206;2023-04-06T00:22:30;97388.16;;;5.31;48.50
32251;BME280;41295;48.518;9.206;2023-04-06T00:24:33;97382.78;;;5.44;48.12
32251;BME280;41295;48.518;9.206;2023-04-06T00:26:37;97391.66;;;5.25;48.56
32251;BME280;41295;48.518;9.206;2023-04-06T00:28:40;97388.31;;;5.22;48.65
32251;BME280;41295;48.518;9.206;2023-04-06T00:30:42;97387.47;;;5.16;48.50
32251;BME280;41295;48.518;9.206;2023-04-06T00:32:45;97390.16;;;5.12;48.51
32251;BME280;41295;48.518;9.206;2023-04-06T00:34:47;97382.44;;;5.09;48.51
32251;BME280;41295;48.518;9.206;2023-04-06T00:36:50;97385.03;;;5.09;48.61
32251;BME280;41295;48.518;9.206;2023-04-06T00:38:53;97382.44;;;5.09;48.61
32251;BME280;41295;48.518;9.206;2023-04-06T00:40:56;97381.59;;;5.07;48.47
32251;BME280;41295;48.518;9.206;2023-04-06T00:43:00;97383.38;;;5.03;48.68
32251;BME280;41295;48.518;9.206;2023-04-06T00:45:03;97386.88;;;4.97;49.04
32251;BME280;41295;48.518;9.206;2023-04-06T00:47:06;97391.22;;;4.95;48.85
32251;BME280;41295;48.518;9.206;2023-04-06T00:49:08;97380.97;;;4.89;49.30
32251;BME280;41295;48.518;9.206;2023-04-06T00:51:11;97381.03;;;4.86;49.30
32251;BME280;41295;48.518;9.206;2023-04-06T00:53:14;97383.63;;;4.84;49.41
32251;BME280;41295;48.518;9.206;2023-04-06T00:55:16;97375.03;;;4.82;49.33
32251;BME280;41295;48.518;9.206;2023-04-06T00:57:19;97378.44;;;4.86;49.71
32251;BME280;41295;48.518;9.206;2023-04-06T00:59:23;97375.13;;;4.74;49.71
32251;BME280;41295;48.518;9.206;2023-04-06T01:01:26;97370.03;;;4.69;50.06
32251;BME280;41295;48.518;9.206;2023-04-06T01:03:30;97368.31;;;4.67;49.81
32251;BME280;41295;48.518;9.206;2023-04-06T01:05:33;97369.31;;;4.56;50.35
32251;BME280;41295;48.518;9.206;2023-04-06T01:07:35;97373.75;;;4.47;50.34
32251;BME280;41295;48.518;9.206;2023-04-06T01:09:38;97366.88;;;4.44;50.66
32251;BME280;41295;48.518;9.206;2023-04-06T01:11:43;97364.34;;;4.39;50.81
32251;BME280;41295;48.518;9.206;2023-04-06T01:13:46;97372.13;;;4.35;50.58
32251;BME280;41295;48.518;9.206;2023-04-06T01:15:50;97365.22;;;4.37;50.90
32251;BME280;41295;48.518;9.206;2023-04-06T01:17:53;97371.25;;;4.39;50.97
32251;BME280;41295;48.518;9.206;2023-04-06T01:19:56;97375.50;;;4.41;50.97
32251;BME280;41295;48.518;9.206;2023-04-06T01:21:58;97369.53;;;4.39;50.84
32251;BME280;41295;48.518;9.206;2023-04-06T01:24:03;97367.78;;;4.38;50.46
32251;BME280;41295;48.518;9.206;2023-04-06T01:26:05;97358.34;;;4.37;50.70
32251;BME280;41295;48.518;9.206;2023-04-06T01:28:08;97364.38;;;4.36;51.29
32251;BME280;41295;48.518;9.206;2023-04-06T01:30:11;97355.00;;;4.27;51.18
32251;BME280;41295;48.518;9.206;2023-04-06T01:32:13;97354.19;;;4.22;51.60
32251;BME280;41295;48.518;9.206;2023-04-06T01:34:16;97359.47;;;4.13;51.45
32251;BME280;41295;48.518;9.206;2023-04-06T01:36:19;97355.19;;;4.10;51.72
32251;BME280;41295;48.518;9.206;2023-04-06T01:38:21;97354.41;;;4.02;51.56
32251;BME280;41295;48.518;9.206;2023-04-06T01:40:25;97350.97;;;4.03;51.88
32251;BME280;41295;48.518;9.206;2023-04-06T01:42:28;97349.25;;;3.99;51.59
32251;BME280;41295;48.518;9.206;2023-04-06T01:44:31;97348.41;;;4.00;51.96
32251;BME280;41295;48.518;9.206;2023-04-06T01:46:34;97349.25;;;3.99;51.79
32251;BME280;41295;48.518;9.206;2023-04-06T01:48:36;97350.97;;;4.01;51.71
32251;BME280;41295;48.518;9.206;2023-04-06T01:50:39;97347.50;;;4.05;51.50
32251;BME280;41295;48.518;9.206;2023-04-06T01:52:42;97349.19;;;4.06;51.50
32251;BME280;41295;48.518;9.206;2023-04-06T01:54:44;97342.34;;;4.05;51.79
32251;BME280;41295;48.518;9.206;2023-04-06T01:56:48;97345.78;;;4.04;51.65
32251;BME280;41295;48.518;9.206;2023-04-06T01:58:51;97341.53;;;4.00;51.72
32251;BME280;41295;48.518;9.206;2023-04-06T02:00:54;97344.97;;;3.99;52.13
32251;BME280;41295;48.518;9.206;2023-04-06T02:02:57;97346.72;;;3.95;51.75
32251;BME280;41295;48.518;9.206;2023-04-06T02:05:00;97343.28;;;3.96;51.71
32251;BME280;41295;48.518;9.206;2023-04-06T02:07:02;97341.53;;;4.00;51.90
32251;BME280;41295;48.518;9.206;2023-04-06T02:09:05;97350.13;;;4.01;52.27
32251;BME280;41295;48.518;9.206;2023-04-06T02:11:08;97339.84;;;3.96;51.68
32251;BME280;41295;48.518;9.206;2023-04-06T02:13:12;97336.44;;;3.92;51.92
32251;BME280;41295;48.518;9.206;2023-04-06T02:15:15;97343.34;;;3.90;51.78
32251;BME280;41295;48.518;9.206;2023-04-06T02:17:17;97339.91;;;3.91;51.62
32251;BME280;41295;48.518;9.206;2023-04-06T02:19:20;97342.47;;;3.90;51.67
32251;BME280;41295;48.518;9.206;2023-04-06T02:21:23;97341.63;;;3.91;51.82
32251;BME280;41295;48.518;9.206;2023-04-06T02:23:26;97345.91;;;3.92;51.58
32251;BME280;41295;48.518;9.206;2023-04-06T02:25:28;97348.47;;;3.92;51.95
32251;BME280;41295;48.518;9.206;2023-04-06T02:27:31;97349.38;;;3.91;52.07
32251;BME280;41295;48.518;9.206;2023-04-06T02:29:35;97342.50;;;3.87;52.27
32251;BME280;41295;48.518;9.206;2023-04-06T02:31:38;97342.53;;;3.85;51.82
32251;BME280;41295;48.518;9.206;2023-04-06T02:33:40;97330.53;;;3.81;52.13
32251;BME280;41295;48.518;9.206;2023-04-06T02:35:44;97334.81;;;3.82;52.22
32251;BME280;41295;48.518;9.206;2023-04-06T02:37:46;97332.28;;;3.77;52.46
32251;BME280;41295;48.518;9.206;2023-04-06T02:39:49;97335.78;;;3.73;52.08
32251;BME280;41295;48.518;9.206;2023-04-06T02:41:52;97341.78;;;3.70;52.04
32251;BME280;41295;48.518;9.206;2023-04-06T02:43:54;97336.66;;;3.69;52.03
32251;BME280;41295;48.518;9.206;2023-04-06T02:45:58;97340.13;;;3.66;52.56
32251;BME280;41295;48.518;9.206;2023-04-06T02:48:01;97338.41;;;3.65;52.79
32251;BME280;41295;48.518;9.206;2023-04-06T02:50:04;97339.28;;;3.64;52.20
32251;BME280;41295;48.518;9.206;2023-04-06T02:52:07;97337.53;;;3.65;52.85
32251;BME280;41295;48.518;9.206;2023-04-06T02:54:09;97337.56;;;3.63;52.79
32251;BME280;41295;48.518;9.206;2023-04-06T02:56:12;97341.84;;;3.66;52.26
32251;BME280;41295;48.518;9.206;2023-04-06T02:58:15;97336.72;;;3.64;52.66
32251;BME280;41295;48.518;9.206;2023-04-06T03:00:18;97341.00;;;3.62;52.80
32251;BME280;41295;48.518;9.206;2023-04-06T03:02:22;97331.56;;;3.59;52.95
32251;BME280;41295;48.518;9.206;2023-04-06T03:04:25;97336.75;;;3.58;52.47
32251;BME280;41295;48.518;9.206;2023-04-06T03:06:27;97340.19;;;3.58;52.46
32251;BME280;41295;48.518;9.206;2023-04-06T03:08:30;97339.34;;;3.56;52.90
32251;BME280;41295;48.518;9.206;2023-04-06T03:10:33;97335.91;;;3.56;52.69
32251;BME280;41295;48.518;9.206;2023-04-06T03:12:35;97337.66;;;3.55;52.58
32251;BME280;41295;48.518;9.206;2023-04-06T03:14:40;97337.66;;;3.51;52.63
32251;BME280;41295;48.518;9.206;2023-04-06T03:16:43;97339.38;;;3.53;53.09
32251;BME280;41295;48.518;9.206;2023-04-06T03:18:47;97337.66;;;3.51;53.24
32251;BME280;41295;48.518;9.206;2023-04-06T03:20:50;97337.66;;;3.55;53.20
32251;BME280;41295;48.518;9.206;2023-04-06T03:22:55;97330.81;;;3.49;53.75
32251;BME280;41295;48.518;9.206;2023-04-06T03:24:57;97331.78;;;3.38;54.12
32251;BME280;41295;48.518;9.206;2023-04-06T03:27:03;97331.81;;;3.31;54.45
32251;BME280;41295;48.518;9.206;2023-04-06T03:29:07;97333.56;;;3.24;54.17
32251;BME280;41295;48.518;9.206;2023-04-06T03:31:10;97332.78;;;3.18;54.40
32251;BME280;41295;48.518;9.206;2023-04-06T03:33:13;97337.91;;;3.18;54.83
32251;BME280;41295;48.518;9.206;2023-04-06T03:35:17;97339.66;;;3.16;54.99
32251;BME280;41295;48.518;9.206;2023-04-06T03:37:19;97343.97;;;3.10;54.75
32251;BME280;41295;48.518;9.206;2023-04-06T03:39:22;97344.81;;;3.09;54.53
32251;BME280;41295;48.518;9.206;2023-04-06T03:41:24;97341.34;;;3.15;54.44
32251;BME280;41295;48.518;9.206;2023-04-06T03:43:27;97352.56;;;3.09;55.19
32251;BME280;41295;48.518;9.206;2023-04-06T03:45:30;97343.97;;;3.10;54.89
32251;BME280;41295;48.518;9.206;2023-04-06T03:47:32;97355.13;;;3.09;54.64
32251;BME280;41295;48.518;9.206;2023-04-06T03:49:35;97350.00;;;3.08;54.78
32251;BME280;41295;48.518;9.206;2023-04-06T03:51:42;97357.72;;;3.09;55.14
32251;BME280;41295;48.518;9.206;2023-04-06T03:53:44;97356.00;;;3.08;54.81
32251;BME280;41295;48.518;9.206;2023-04-06T03:55:47;97345.69;;;3.11;54.47
32251;BME280;41295;48.518;9.206;2023-04-06T03:57:49;97360.28;;;3.11;54.47
32251;BME280;41295;48.518;9.206;2023-04-06T03:59:52;97354.28;;;3.10;55.08
32251;BME280;41295;48.518;9.206;2023-04-06T04:01:55;97357.72;;;3.09;54.88
32251;BME280;41295;48.518;9.206;2023-04-06T04:03:57;97359.47;;;3.03;55.28
32251;BME280;41295;48.518;9.206;2023-04-06T04:06:01;97356.88;;;3.07;55.19
32251;BME280;41295;48.518;9.206;2023-04-06T04:08:05;97353.44;;;3.07;55.25
32251;BME280;41295;48.518;9.206;2023-04-06T04:10:08;97357.78;;;2.97;55.24
32251;BME280;41295;48.518;9.206;2023-04-06T04:12:11;97357.78;;;2.95;55.38
32251;BME280;41295;48.518;9.206;2023-04-06T04:14:15;97356.94;;;2.98;54.65
32251;BME280;41295;48.518;9.206;2023-04-06T04:16:18;97366.34;;;3.02;54.67
32251;BME280;41295;48.518;9.206;2023-04-06T04:18:21;97367.22;;;3.03;55.09
32251;BME280;41295;48.518;9.206;2023-04-06T04:20:23;97362.94;;;2.98;54.29
32251;BME280;41295;48.518;9.206;2023-04-06T04:22:26;97362.06;;;2.99;54.90
32251;BME280;41295;48.518;9.206;2023-04-06T04:24:31;97370.66;;;2.98;54.58
32251;BME280;41295;48.518;9.206;2023-04-06T04:26:33;97363.78;;;2.99;54.79
32251;BME280;41295;48.518;9.206;2023-04-06T04:28:36;97365.50;;;2.98;54.64
32251;BME280;41295;48.518;9.206;2023-04-06T04:30:39;97374.13;;;2.94;54.36
32251;BME280;41295;48.518;9.206;2023-04-06T04:32:41;97373.28;;;2.92;54.65
32251;BME280;41295;48.518;9.206;2023-04-06T04:34:44;97368.13;;;2.92;54.35
32251;BME280;41295;48.518;9.206;2023-04-06T04:36:47;97369.00;;;2.93;54.51
32251;BME280;41295;48.518;9.206;2023-04-06T04:38:49;97373.31;;;2.87;54.56
32251;BME280;41295;48.518;9.206;2023-04-06T04:40:53;97371.59;;;2.85;54.31
32251;BME280;41295;48.518;9.206;2023-04-06T04:42:56;97369.91;;;2.82;55.12
32251;BME280;41295;48.518;9.206;2023-04-06T04:44:58;97372.47;;;2.79;55.15
32251;BME280;41295;48.518;9.206;2023-04-06T04:47:01;97375.94;;;2.76;55.25
32251;BME280;41295;48.518;9.206;2023-04-06T04:49:04;97375.94;;;2.73;55.00
32251;BME280;41295;48.518;9.206;2023-04-06T04:51:06;97374.22;;;2.74;55.58
32251;BME280;41295;48.518;9.206;2023-04-06T04:53:09;97375.94;;;2.73;55.66
32251;BME280;41295;48.518;9.206;2023-04-06T04:55:12;97374.22;;;2.74;55.11
32251;BME280;41295;48.518;9.206;2023-04-06T04:57:16;97371.66;;;2.72;55.23
32251;BME280;41295;48.518;9.206;2023-04-06T04:59:18;97381.94;;;2.74;55.30
32251;BME280;41295;48.518;9.206;2023-04-06T05:01:21;97378.50;;;2.72;54.99
32251;BME280;41295;48.518;9.206;2023-04-06T05:03:25;97377.66;;;2.73;55.33
32251;BME280;41295;48.518;9.206;2023-04-06T05:05:28;97385.41;;;2.73;55.36
32251;BME280;41295;48.518;9.206;2023-04-06T05:07:31;97379.38;;;2.72;55.89
32251;BME280;41295;48.518;9.206;2023-04-06T05:09:34;97386.25;;;2.72;55.59
32251;BME280;41295;48.518;9.206;2023-04-06T05:11:36;97385.41;;;2.68;55.67
32251;BME280;41295;48.518;9.206;2023-04-06T05:13:40;97386.28;;;2.67;55.87
32251;BME280;41295;48.518;9.206;2023-04-06T05:15:43;97388.84;;;2.66;56.14
32251;BME280;41295;48.518;9.206;2023-04-06T05:17:45;97390.53;;;2.68;55.37
32251;BME280;41295;48.518;9.206;2023-04-06T05:19:50;97387.13;;;2.71;55.71
32251;BME280;41295;48.518;9.206;2023-04-06T05:21:53;97395.72;;;2.71;55.76
32251;BME280;41295;48.518;9.206;2023-04-06T05:23:55;97397.41;;;2.72;55.26
32251;BME280;41295;48.518;9.206;2023-04-06T05:25:58;97399.97;;;2.74;55.24
32251;BME280;41295;48.518;9.206;2023-04-06T05:28:01;97399.97;;;2.74;55.20
32251;BME280;41295;48.518;9.206;2023-04-06T05:30:06;97400.81;;;2.76;55.88
32251;BME280;41295;48.518;9.206;2023-04-06T05:32:09;97398.25;;;2.74;55.25
32251;BME280;41295;48.518;9.206;2023-04-06T05:34:12;97404.25;;;2.76;55.58
32251;BME280;41295;48.518;9.206;2023-04-06T05:36:15;97406.84;;;2.78;56.10
32251;BME280;41295;48.518;9.206;2023-04-06T05:38:17;97405.13;;;2.79;55.76
32251;BME280;41295;48.518;9.206;2023-04-06T05:40:22;97404.22;;;2.81;55.77
32251;BME280;41295;48.518;9.206;2023-04-06T05:42:25;97411.09;;;2.85;55.14
32251;BME280;41295;48.518;9.206;2023-04-06T05:44:28;97408.53;;;2.85;55.74
32251;BME280;41295;48.518;9.206;2023-04-06T05:46:32;97402.47;;;2.88;55.27
32251;BME280;41295;48.518;9.206;2023-04-06T05:48:34;97411.94;;;2.87;55.33
32251;BME280;41295;48.518;9.206;2023-04-06T05:50:37;97413.66;;;2.85;56.12
32251;BME280;41295;48.518;9.206;2023-04-06T05:52:40;97415.38;;;2.85;55.93
32251;BME280;41295;48.518;9.206;2023-04-06T05:54:44;97413.66;;;2.87;56.01
32251;BME280;41295;48.518;9.206;2023-04-06T05:56:47;97415.34;;;2.89;55.49
32251;BME280;41295;48.518;9.206;2023-04-06T05:58:49;97419.66;;;2.91;56.15
32251;BME280;41295;48.518;9.206;2023-04-06T06:00:56;97414.47;;;2.95;56.07
32251;BME280;41295;48.518;9.206;2023-04-06T06:03:00;97417.88;;;3.00;55.45
32251;BME280;41295;48.518;9.206;2023-04-06T06:05:05;97417.88;;;3.04;55.52
32251;BME280;41295;48.518;9.206;2023-04-06T06:07:08;97413.56;;;3.09;55.28
32251;BME280;41295;48.518;9.206;2023-04-06T06:09:11;97418.66;;;3.15;55.72
32251;BME280;41295;48.518;9.206;2023-04-06T06:11:13;97418.66;;;3.20;55.23
32251;BME280;41295;48.518;9.206;2023-04-06T06:13:16;97419.47;;;3.23;55.65
32251;BME280;41295;48.518;9.206;2023-04-06T06:15:19;97421.16;;;3.29;55.99
32251;BME280;41295;48.518;9.206;2023-04-06T06:17:22;97426.28;;;3.35;55.41
32251;BME280;41295;48.518;9.206;2023-04-06T06:19:26;97427.97;;;3.40;55.32
32251;BME280;41295;48.518;9.206;2023-04-06T06:21:28;97427.09;;;3.44;55.13
32251;BME280;41295;48.518;9.206;2023-04-06T06:23:32;97421.03;;;3.53;54.80
32251;BME280;41295;48.518;9.206;2023-04-06T06:25:34;97422.72;;;3.52;54.79
32251;BME280;41295;48.518;9.206;2023-04-06T06:27:37;97420.97;;;3.60;54.25
32251;BME280;41295;48.518;9.206;2023-04-06T06:29:39;97426.16;;;3.56;54.11
32251;BME280;41295;48.518;9.206;2023-04-06T06:31:42;97420.97;;;3.60;53.86
32251;BME280;41295;48.518;9.206;2023-04-06T06:33:44;97420.09;;;3.63;53.54
32251;BME280;41295;48.518;9.206;2023-04-06T06:35:48;97426.09;;;3.65;53.69
32251;BME280;41295;48.518;9.206;2023-04-06T06:37:51;97422.63;;;3.69;53.59
32251;BME280;41295;48.518;9.206;2023-04-06T06:39:54;97424.28;;;3.73;53.49
32251;BME280;41295;48.518;9.206;2023-04-06T06:41:56;97425.97;;;3.84;53.01
32251;BME280;41295;48.518;9.206;2023-04-06T06:44:01;97419.97;;;3.82;52.58
32251;BME280;41295;48.518;9.206;2023-04-06T06:46:05;97420.81;;;3.84;52.63
32251;BME280;41295;48.518;9.206;2023-04-06T06:48:07;97423.34;;;3.87;52.17
32251;BME280;41295;48.518;9.206;2023-04-06T06:50:10;97419.88;;;3.90;52.77
32251;BME280;41295;48.518;9.206;2023-04-06T06:52:14;97426.59;;;4.13;51.89
32251;BME280;41295;48.518;9.206;2023-04-06T06:54:17;97429.97;;;4.15;51.72
32251;BME280;41295;48.518;9.206;2023-04-06T06:56:19;97430.06;;;4.07;52.08
32251;BME280;41295;48.518;9.206;2023-04-06T06:58:22;97427.47;;;4.08;51.85
32251;BME280;41295;48.518;9.206;2023-04-06T07:00:25;97434.28;;;4.16;51.44
32251;BME280;41295;48.518;9.206;2023-04-06T07:02:27;97441.22;;;4.11;51.77
32251;BME280;41295;48.518;9.206;2023-04-06T07:04:30;97434.31;;;4.13;51.45
32251;BME280;41295;48.518;9.206;2023-04-06T07:06:32;97439.47;;;4.11;51.72
32251;BME280;41295;48.518;9.206;2023-04-06T07:08:37;97432.56;;;4.13;51.80
32251;BME280;41295;48.518;9.206;2023-04-06T07:10:39;97437.75;;;4.13;52.46
32251;BME280;41295;48.518;9.206;2023-04-06T07:12:42;97431.72;;;4.16;52.35
32251;BME280;41295;48.518;9.206;2023-04-06T07:14:45;97433.38;;;4.20;52.14
32251;BME280;41295;48.518;9.206;2023-04-06T07:16:47;97436.84;;;4.19;52.50
32251;BME280;41295;48.518;9.206;2023-04-06T07:18:51;97431.66;;;4.20;52.87
32251;BME280;41295;48.518;9.206;2023-04-06T07:20:54;97437.66;;;4.23;52.73
32251;BME280;41295;48.518;9.206;2023-04-06T07:22:56;97432.47;;;4.24;52.83
32251;BME280;41295;48.518;9.206;2023-04-06T07:25:00;97435.84;;;4.32;52.32
32251;BME280;41295;48.518;9.206;2023-04-06T07:27:03;97433.25;;;4.36;51.75
32251;BME280;41295;48.518;9.206;2023-04-06T07:29:06;97439.28;;;4.33;52.19
32251;BME280;41295;48.518;9.206;2023-04-06T07:31:08;97432.38;;;4.35;51.89
32251;BME280;41295;48.518;9.206;2023-04-06T07:33:11;97439.22;;;4.39;51.78
32251;BME280;41295;48.518;9.206;2023-04-06T07:35:14;97433.16;;;4.43;51.89
32251;BME280;41295;48.518;9.206;2023-04-06T07:37:17;97435.66;;;4.51;51.64
32251;BME280;41295;48.518;9.206;2023-04-06T07:39:20;97438.84;;;4.74;49.27
32251;BME280;41295;48.518;9.206;2023-04-06T07:41:24;97432.94;;;4.64;49.35
32251;BME280;41295;48.518;9.206;2023-04-06T07:43:26;97435.44;;;4.70;49.89
32251;BME280;41295;48.518;9.206;2023-04-06T07:45:29;97435.44;;;4.73;51.03
32251;BME280;41295;48.518;9.206;2023-04-06T07:47:32;97436.31;;;4.69;51.21
32251;BME280;41295;48.518;9.206;2023-04-06T07:49:34;97435.44;;;4.72;51.04
32251;BME280;41295;48.518;9.206;2023-04-06T07:51:37;97426.78;;;4.76;50.80
32251;BME280;41295;48.518;9.206;2023-04-06T07:53:40;97427.69;;;4.73;51.12
32251;BME280;41295;48.518;9.206;2023-04-06T07:55:43;97426.78;;;4.76;51.20
32251;BME280;41295;48.518;9.206;2023-04-06T07:57:47;97430.22;;;4.76;51.06
32251;BME280;41295;48.518;9.206;2023-04-06T07:59:49;97425.06;;;4.75;50.83
32251;BME280;41295;48.518;9.206;2023-04-06T08:01:52;97422.47;;;4.76;50.46
32251;BME280;41295;48.518;9.206;2023-04-06T08:03:55;97423.97;;;4.96;50.50
32251;BME280;41295;48.518;9.206;2023-04-06T08:06:00;97427.53;;;4.86;50.73
32251;BME280;41295;48.518;9.206;2023-04-06T08:08:03;97428.38;;;4.85;50.86
32251;BME280;41295;48.518;9.206;2023-04-06T08:10:06;97426.44;;;5.02;50.43
32251;BME280;41295;48.518;9.206;2023-04-06T08:12:09;97436.91;;;4.95;50.77
32251;BME280;41295;48.518;9.206;2023-04-06T08:14:13;97429.13;;;4.96;50.67
32251;BME280;41295;48.518;9.206;2023-04-06T08:16:18;97426.53;;;4.96;51.23
32251;BME280;41295;48.518;9.206;2023-04-06T08:18:21;97419.59;;;5.00;50.97
32251;BME280;41295;48.518;9.206;2023-04-06T08:20:24;97423.88;;;5.02;51.38
32251;BME280;41295;48.518;9.206;2023-04-06T08:22:26;97422.09;;;5.06;51.21
32251;BME280;41295;48.518;9.206;2023-04-06T08:24:29;97427.91;;;5.24;50.33
32251;BME280;41295;48.518;9.206;2023-04-06T08:26:33;97425.22;;;5.32;50.34
32251;BME280;41295;48.518;9.206;2023-04-06T08:28:36;97423.53;;;5.31;50.21
32251;BME280;41295;48.518;9.206;2023-04-06T08:30:41;97426.09;;;5.31;50.48
32251;BME280;41295;48.518;9.206;2023-04-06T08:32:44;97422.66;;;5.30;50.52
32251;BME280;41295;48.518;9.206;2023-04-06T08:34:47;97424.34;;;5.31;50.28
32251;BME280;41295;48.518;9.206;2023-04-06T08:36:49;97426.00;;;5.37;50.22
32251;BME280;41295;48.518;9.206;2023-04-06T08:38:52;97422.31;;;5.55;49.72
32251;BME280;41295;48.518;9.206;2023-04-06T08:40:55;97418.59;;;5.70;48.53
32251;BME280;41295;48.518;9.206;2023-04-06T08:42:59;97411.81;;;5.63;48.18
32251;BME280;41295;48.518;9.206;2023-04-06T08:45:06;97410.91;;;5.67;48.18
32251;BME280;41295;48.518;9.206;2023-04-06T08:47:11;97412.50;;;5.74;48.10
32251;BME280;41295;48.518;9.206;2023-04-06T08:49:16;97410.69;;;5.80;48.98
32251;BME280;41295;48.518;9.206;2023-04-06T08:51:18;97407.84;;;5.95;48.88
32251;BME280;41295;48.518;9.206;2023-04-06T08:53:21;97407.06;;;5.90;48.70
32251;BME280;41295;48.518;9.206;2023-04-06T08:55:24;97408.81;;;5.91;48.42
32251;BME280;41295;48.518;9.206;2023-04-06T08:57:27;97409.59;;;5.96;48.06
32251;BME280;41295;48.518;9.206;2023-04-06T08:59:31;97408.66;;;5.99;47.87
32251;BME280;41295;48.518;9.206;2023-04-06T09:01:39;97401.66;;;6.06;47.37
32251;BME280;41295;48.518;9.206;2023-04-06T09:03:44;97401.38;;;6.23;45.42
32251;BME280;41295;48.518;9.206;2023-04-06T09:05:48;97401.44;;;6.20;45.45
32251;BME280;41295;48.518;9.206;2023-04-06T09:07:51;97399.53;;;6.30;45.35
32251;BME280;41295;48.518;9.206;2023-04-06T09:09:54;97399.63;;;6.25;45.60
32251;BME280;41295;48.518;9.206;2023-04-06T09:11:56;97392.69;;;6.25;46.24
32251;BME280;41295;48.518;9.206;2023-04-06T09:14:04;97400.41;;;6.30;46.48
32251;BME280;41295;48.518;9.206;2023-04-06T09:16:07;97395.75;;;6.48;45.81
32251;BME280;41295;48.518;9.206;2023-04-06T09:18:10;97389.75;;;6.46;45.96
32251;BME280;41295;48.518;9.206;2023-04-06T09:20:14;97394.72;;;6.57;46.11
32251;BME280;41295;48.518;9.206;2023-04-06T09:22:18;97393.66;;;6.67;46.54
32251;BME280;41295;48.518;9.206;2023-04-06T09:24:21;97393.75;;;6.63;46.53
32251;BME280;41295;48.518;9.206;2023-04-06T09:26:27;97392.94;;;6.60;46.30
32251;BME280;41295;48.518;9.206;2023-04-06T09:28:41;97388.56;;;6.63;45.86
32251;BME280;41295;48.518;9.206;2023-04-06T09:30:47;97385.03;;;6.65;45.83
32251;BME280;41295;48.518;9.206;2023-04-06T09:32:53;97384.19;;;6.66;45.80
32251;BME280;41295;48.518;9.206;2023-04-06T09:35:05;97385.88;;;6.67;45.88
32251;BME280;41295;48.518;9.206;2023-04-06T09:37:16;97389.25;;;6.71;45.98
32251;BME280;41295;48.518;9.206;2023-04-06T09:39:20;97383.19;;;6.73;45.90
32251;BME280;41295;48.518;9.206;2023-04-06T09:41:25;97384.84;;;6.76;45.64
32251;BME280;41295;48.518;9.206;2023-04-06T09:43:28;97381.34;;;6.79;45.16
32251;BME280;41295;48.518;9.206;2023-04-06T09:45:31;97381.00;;;6.94;43.74
32251;BME280;41295;48.518;9.206;2023-04-06T09:47:36;97373.97;;;7.00;43.90
32251;BME280;41295;48.518;9.206;2023-04-06T09:49:39;97369.72;;;6.97;44.40
32251;BME280;41295;48.518;9.206;2023-04-06T09:51:45;97373.94;;;7.01;44.47
32251;BME280;41295;48.518;9.206;2023-04-06T09:53:52;97370.38;;;7.07;43.85
32251;BME280;41295;48.518;9.206;2023-04-06T09:55:57;97365.25;;;7.04;43.63
32251;BME280;41295;48.518;9.206;2023-04-06T09:58:05;97362.63;;;7.05;43.27
32251;BME280;41295;48.518;9.206;2023-04-06T10:00:09;97361.69;;;7.08;43.21
32251;BME280;41295;48.518;9.206;2023-04-06T10:02:19;97355.59;;;7.10;42.66
32251;BME280;41295;48.518;9.206;2023-04-06T10:04:31;97354.66;;;7.13;42.96
32251;BME280;41295;48.518;9.206;2023-04-06T10:06:39;97361.97;;;7.35;41.71
32251;BME280;41295;48.518;9.206;2023-04-06T10:08:42;97363.38;;;7.49;40.56
32251;BME280;41295;48.518;9.206;2023-04-06T10:10:50;97363.59;;;7.39;41.37
32251;BME280;41295;48.518;9.206;2023-04-06T10:12:53;97361.84;;;7.40;41.32
32251;BME280;41295;48.518;9.206;2023-04-06T10:14:57;97355.81;;;7.39;41.38
32251;BME280;41295;48.518;9.206;2023-04-06T10:17:00;97354.06;;;7.41;41.25
32251;BME280;41295;48.518;9.206;2023-04-06T10:19:08;97357.44;;;7.43;41.58
32251;BME280;41295;48.518;9.206;2023-04-06T10:21:15;97354.84;;;7.43;41.45
32251;BME280;41295;48.518;9.206;2023-04-06T10:23:35;97355.75;;;7.42;40.73
32251;BME280;41295;48.518;9.206;2023-04-06T10:25:38;97363.31;;;7.52;40.39
32251;BME280;41295;48.518;9.206;2023-04-06T10:27:42;97352.69;;;7.61;39.74
32251;BME280;41295;48.518;9.206;2023-04-06T10:29:46;97355.44;;;7.90;38.72
32251;BME280;41295;48.518;9.206;2023-04-06T10:31:50;97352.09;;;7.86;39.41
32251;BME280;41295;48.518;9.206;2023-04-06T10:33:56;97348.84;;;7.78;39.34
32251;BME280;41295;48.518;9.206;2023-04-06T10:36:09;97344.38;;;7.83;38.93
32251;BME280;41295;48.518;9.206;2023-04-06T10:38:12;97345.06;;;7.90;39.11
32251;BME280;41295;48.518;9.206;2023-04-06T10:40:25;97339.72;;;7.96;39.11
32251;BME280;41295;48.518;9.206;2023-04-06T10:42:36;97342.28;;;7.98;38.95
32251;BME280;41295;48.518;9.206;2023-04-06T10:44:43;97347.38;;;8.01;38.47
32251;BME280;41295;48.518;9.206;2023-04-06T10:46:52;97338.47;;;8.11;38.07
32251;BME280;41295;48.518;9.206;2023-04-06T10:48:55;97341.06;;;8.11;37.60
32251;BME280;41295;48.518;9.206;2023-04-06T10:50:59;97334.22;;;8.09;37.16
32251;BME280;41295;48.518;9.206;2023-04-06T10:53:04;97332.63;;;8.03;37.32
32251;BME280;41295;48.518;9.206;2023-04-06T10:55:08;97335.84;;;8.13;37.46
32251;BME280;41295;48.518;9.206;2023-04-06T10:57:12;97337.69;;;8.41;38.11
32251;BME280;41295;48.518;9.206;2023-04-06T10:59:18;97339.22;;;8.48;36.70
32251;BME280;41295;48.518;9.206;2023-04-06T11:01:24;97336.41;;;8.56;36.57
32251;BME280;41295;48.518;9.206;2023-04-06T11:03:28;97336.34;;;8.59;36.63